Hovedside
METAR-TAF:

METAR-TAF

Lufthavner :

Dusjanbe, Tadsjikistan

breddegrad: 38-33N, lengdegrad: 068-47E, høyde over havet: 803 m

Gjeldene værobservasjon

Denne rapporten ble laget for 23 minutter siden, klokken 17:30 UTC
Vind 2 kt fra skiftende retning
Temperatur 11°C
Luftfuktighet 62%
Trykk 1022 hPa
Sikt 10 km eller mer

METAR: UTDD 211730Z VRB01MPS 9999 NSC 11/04 Q1022 R09/D NOSIG RMK QFE698/0931

Tid: 22:53 (17:53 UTC)

Varsel

Denne rapporten ble laget for 2 timer og 53 minutter siden, klokken 15:00 UTC
Varsel gyldig fra 21. klokken 16 UTC til 22. klokken 04 UTC
Vind 4 kt fra skiftende retning
Sikt: 6000 m
Midlertidig
fra 21. klokken 16 UTC til 22. klokken 04 UTC
Sikt: 3100 m
dis, røyk

TAF: UTDD 211500Z 2116/2204 VRB02MPS 6000 NSC TEMPO 2116/2204 3100 BR FU

Værobservasjoner og værvarsel for over 4000 flyplasser (METAR- og TAF-rapporter).

Tilgjengelige stasjoner er representert av de røde og gule prikkene på kartet.

Hold musepekeren over prikken for å se navnet på stasjonen.

Klikk så for å se værobservasjoner og -varsler.

For å forandre kartet kan du klikke på den grønne knappen med svart kryss for å zoome inn, på den grønne knappen med strek for å zoome ut, eller på de grønne pilene for å se tilstøtende kart.


METAR-TAF: